KBPG/BPG METAR and TAF weather

Enter ICAO airport designator
Station Type Date Time Source
KBPG METAR 2018/06/25 02:15 UTC NOAA

KBPG 250215Z AUTO 17021G24KT 7SM CLR 35/15 A2977 RMK AO2 LTG DSNT NE AND E T03510145


Station Type Date Time Source
KBPG Decoded METAR 2018/06/25 02:15 UTC NOAA

Big Spring, Big Spring McMahon-Wrinkle Airport, TX, United States (KBPG) 32-12N 101-31W
Jun 24, 2018 - 10:15 PM EDT / 2018.06.25 0215 UTC
Wind: from the S (170 degrees) at 24 MPH (21 KT) gusting to 28 MPH (24 KT):0
Visibility: 7 mile(s):0
Sky conditions: clear
Weather: Lightning observed
Temperature: 95.2 F (35.1 C)
Heat index: 94.3 F (34.6 C):1
Dew Point: 58.1 F (14.5 C)
Relative Humidity: 29%
Pressure (altimeter): 29.77 in. Hg (1008 hPa)
ob: KBPG 250215Z AUTO 17021G24KT 7SM CLR 35/15 A2977 RMK AO2 LTG DSNT NE AND E T03510145
cycle: 2

Station Type Date Time Source
KBPG TAF UTC NOAA

Error!


Example: see airport list